Time;durP1;ratioP1;P1;durP2;ratioP2;P2;SDS_P1;SDS_P2;PMS_P1;PMS_P2;Temp;Humidity;BMP_temperature;BMP_pressure;BME280_temperature;BME280_humidity;BME280_pressure;Samples;Min_cycle;Max_cycle;Signal;HPM_P1;HPM_P2
2022/07/20 21:59:05;;;;;;;4.10;1.20;;;21.10;90.20;;;;;;4279452;26;20532;-70
2022/07/20 22:01:31;;;;;;;15.23;1.65;;;21.00;90.50;;;;;;4957828;28;20447;-70
2022/07/20 22:03:57;;;;;;;9.07;1.60;;;20.90;90.70;;;;;;4950435;28;20053;-70
2022/07/20 22:06:23;;;;;;;10.25;2.28;;;20.90;90.90;;;;;;4945247;28;20054;-71
2022/07/20 22:08:51;;;;;;;2.42;1.48;;;20.90;91.00;;;;;;4956128;28;21326;-71
2022/07/20 22:11:17;;;;;;;1.85;1.30;;;20.80;91.10;;;;;;4957511;28;20043;-71
2022/07/20 22:13:43;;;;;;;3.55;1.50;;;20.70;91.10;;;;;;4965155;28;20144;-70
2022/07/20 22:16:10;;;;;;;2.85;1.20;;;20.70;91.10;;;;;;4970189;28;20054;-71
2022/07/20 22:18:35;;;;;;;7.55;1.10;;;20.70;91.10;;;;;;4958641;28;20950;-71
2022/07/20 22:21:02;;;;;;;2.63;1.30;;;20.80;91.20;;;;;;4958022;28;20988;-71
2022/07/20 22:23:27;;;;;;;3.85;1.10;;;20.80;91.30;;;;;;4963294;28;20334;-71
2022/07/20 22:25:53;;;;;;;4.05;1.08;;;20.70;91.30;;;;;;4953677;28;20756;-70
2022/07/20 22:28:19;;;;;;;4.20;1.20;;;20.70;91.50;;;;;;4952054;28;20169;-71
2022/07/20 22:30:45;;;;;;;4.25;1.17;;;20.70;91.90;;;;;;4967981;28;20047;-71
2022/07/20 22:33:12;;;;;;;3.53;1.30;;;20.60;91.60;;;;;;4956681;28;20046;-71
2022/07/20 22:35:38;;;;;;;3.95;1.17;;;20.50;91.80;;;;;;4969090;28;20039;-71
2022/07/20 22:38:05;;;;;;;7.38;1.65;;;20.40;91.90;;;;;;4948495;28;20480;-70
2022/07/20 22:40:30;;;;;;;2.20;1.30;;;20.30;92.10;;;;;;4953708;28;20164;-71
2022/07/20 22:42:56;;;;;;;2.83;1.15;;;20.30;92.30;;;;;;4964680;28;20503;-71
2022/07/20 22:45:22;;;;;;;16.65;2.92;;;20.20;92.30;;;;;;4957575;28;20550;-71
2022/07/20 22:47:47;;;;;;;8.52;1.70;;;20.20;92.40;;;;;;4970506;28;20031;-71
2022/07/20 22:50:14;;;;;;;0.85;0.80;;;20.10;92.40;;;;;;4965974;28;20042;-71
2022/07/20 22:52:40;;;;;;;3.13;1.00;;;20.20;92.70;;;;;;4954564;28;20037;-71
2022/07/20 22:55:07;;;;;;;7.93;1.30;;;20.20;92.70;;;;;;4972903;28;20066;-71
2022/07/20 22:57:44;;;;;;;4.75;1.65;;;20.20;92.60;;;;;;4962111;28;20050;-72
2022/07/20 23:00:19;;;;;;;3.30;1.30;;;20.10;92.80;;;;;;4957387;28;20066;-74
2022/07/20 23:02:46;;;;;;;5.40;1.25;;;20.20;92.80;;;;;;4971219;28;20725;-75
2022/07/20 23:05:13;;;;;;;2.45;1.15;;;20.20;92.90;;;;;;4968867;28;20031;-75
2022/07/20 23:07:44;;;;;;;2.92;1.38;;;20.20;92.80;;;;;;4953339;28;20050;-75
2022/07/20 23:10:12;;;;;;;1.98;0.90;;;20.10;92.90;;;;;;4967767;28;20137;-75
2022/07/20 23:12:38;;;;;;;2.78;1.50;;;20.10;93.00;;;;;;4963023;28;20037;-75
2022/07/20 23:15:05;;;;;;;4.05;1.27;;;20.00;92.50;;;;;;4962958;28;20475;-75
2022/07/20 23:17:32;;;;;;;2.80;1.65;;;19.90;92.60;;;;;;4962302;28;20039;-75
2022/07/20 23:19:59;;;;;;;15.48;1.95;;;19.90;92.90;;;;;;4970898;28;20031;-75
2022/07/20 23:22:25;;;;;;;7.95;2.08;;;19.80;93.20;;;;;;4951347;28;20055;-75
2022/07/20 23:24:51;;;;;;;3.63;1.17;;;19.80;93.00;;;;;;4958919;28;20035;-74
2022/07/20 23:27:17;;;;;;;1.23;1.13;;;19.80;93.00;;;;;;4958027;28;20180;-73
2022/07/20 23:29:44;;;;;;;94.63;6.30;;;19.90;92.90;;;;;;4958840;28;20054;-74
2022/07/20 23:32:10;;;;;;;7.10;1.27;;;20.00;92.80;;;;;;4968274;28;20098;-73
2022/07/20 23:34:35;;;;;;;5.30;1.20;;;20.10;92.50;;;;;;4954908;28;20043;-72
2022/07/20 23:37:01;;;;;;;8.25;1.70;;;20.20;92.40;;;;;;4961500;28;20023;-73
2022/07/20 23:39:27;;;;;;;9.02;1.90;;;20.20;92.30;;;;;;4959348;28;20041;-74
2022/07/20 23:41:53;;;;;;;3.58;1.35;;;20.30;92.20;;;;;;4966916;28;20641;-73
2022/07/20 23:44:19;;;;;;;3.17;1.42;;;20.40;92.10;;;;;;4969983;28;20072;-70
2022/07/20 23:46:44;;;;;;;17.92;1.92;;;20.40;91.90;;;;;;4967163;28;20795;-74
2022/07/20 23:49:10;;;;;;;36.30;2.28;;;20.40;91.80;;;;;;4959011;28;20449;-73
2022/07/20 23:51:35;;;;;;;3.78;1.20;;;20.40;91.60;;;;;;4971484;28;20770;-73
2022/07/20 23:54:01;;;;;;;5.57;1.63;;;20.40;91.20;;;;;;4975523;28;20496;-74
2022/07/20 23:56:27;;;;;;;8.25;1.15;;;20.50;90.90;;;;;;4967051;28;20117;-73
2022/07/20 23:58:52;;;;;;;4.18;1.25;;;20.60;90.80;;;;;;4964102;28;20074;-73
